KBIS/BIS METAR and TAF weather

Enter ICAO airport designator
Station Type Date Time Source
KBIS METAR 2019/02/20 22:52 UTC NOAA

KBIS 202252Z 34007KT 7SM -SN SCT050 OVC060 M09/M13 A2967 RMK AO2 SNE32B51 SLP080 P0000 T10941128


Station Type Date Time Source
KBIS Decoded METAR 2019/02/20 22:52 UTC NOAA

BISMARCK MUNICIPAL AIRPORT, ND, United States (KBIS) 46-47N 100-45W 503M
Feb 20, 2019 - 05:52 PM EST / 2019.02.20 2252 UTC
Wind: from the NNW (340 degrees) at 8 MPH (7 KT):0
Visibility: 7 mile(s):0
Sky conditions: overcast
Weather: light snow
Precipitation last hour: A trace
Temperature: 15.1 F (-9.4 C)
Windchill: 5 F (-15 C):1
Dew Point: 9.0 F (-12.8 C)
Relative Humidity: 76%
Pressure (altimeter): 29.67 in. Hg (1004 hPa)
ob: KBIS 202252Z 34007KT 7SM -SN SCT050 OVC060 M09/M13 A2967 RMK AO2 SNE32B51 SLP080 P0000 T10941128
cycle: 23

Station Type Date Time Source
KBIS TAF 2019/02/20 22:42 UTC NOAA

TAF
AMD KBIS 202139Z 2022/2118 02005KT 2SM -SN BKN021 OVC030
FM202300 33005KT 3SM -SN OVC018
FM210200 VRB04KT 5SM -SN BR OVC026
FM211300 VRB04KT P6SM BKN040


Example: see airport list